EDT,Max TemperatureF,Mean TemperatureF,Min TemperatureF,Max Dew PointF,MeanDew PointF,Min DewpointF,Max Humidity, Mean Humidity, Min Humidity, Max Sea Level PressureIn, Mean Sea Level PressureIn, Min Sea Level PressureIn, Max VisibilityMiles, Mean VisibilityMiles, Min VisibilityMiles, Max Wind SpeedMPH, Mean Wind SpeedMPH, Max Gust SpeedMPH,PrecipitationIn, CloudCover, Events, WindDirDegrees
2013-7-1,87,80,77,73,72,69,79,75,65,30.05,29.96,29.89,10,10,2,17,11,24,0.14,6,Rain,187
2013-7-2,91,83,75,72,70,68,83,74,50,30.22,30.13,30.04,10,9,2,20,9,36,0.12,5,Rain,193
2013-7-3,91,82,75,73,72,69,82,70,55,30.27,30.24,30.20,10,10,10,14,8,18,0.00,4,,195
2013-7-4,93,84,78,72,70,64,79,64,39,30.31,30.28,30.22,10,10,9,13,9,18,0.00,3,,210
2013-7-5,93,84,77,72,70,68,79,64,47,30.29,30.24,30.17,10,10,10,12,9,20,0.00,2,,214
2013-7-6,93,84,78,72,69,64,76,60,39,30.25,30.20,30.13,10,10,10,14,10,20,0.00,1,,222
2013-7-7,93,86,78,72,69,68,72,59,45,30.17,30.12,30.05,10,10,10,16,11,22,0.00,1,,230
2013-7-8,89,84,78,72,70,68,74,67,51,30.16,30.12,30.08,10,10,10,15,11,21,0.02,3,Rain,232
2013-7-9,91,84,77,73,71,69,79,69,53,30.15,30.11,30.05,10,10,10,14,9,18,0.00,2,,214
2013-7-10,93,86,78,73,72,69,79,65,50,30.07,30.01,29.93,10,10,8,16,11,22,0.03,3,Rain,221
2013-7-11,86,80,73,74,71,68,83,75,61,29.96,29.92,29.90,10,8,1,16,10,23,1.26,6,Rain,215
2013-7-12,82,78,73,72,70,68,89,80,65,30.03,29.93,29.89,10,8,0,14,4,,1.70,7,Rain,156
2013-7-13,91,81,71,73,69,66,85,76,45,30.27,30.12,30.03,10,6,1,16,3,24,0.03,3,Rain,115
2013-7-14,89,82,75,74,71,68,89,72,53,30.33,30.30,30.26,10,9,1,9,4,,0.00,1,,101
2013-7-15,93,80,69,73,69,64,88,75,50,30.33,30.29,30.22,10,5,0,7,1,,0.00,2,Rain,256
2013-7-16,96,88,78,79,72,69,79,66,47,30.23,30.20,30.15,10,10,8,9,5,,0.04,1,Rain,292
2013-7-17,96,85,75,73,71,68,82,62,43,30.20,30.16,30.11,10,10,7,8,2,,0.00,1,Rain,78
2013-7-18,96,86,78,74,72,66,81,61,38,30.14,30.09,30.04,10,9,5,9,4,,0.00,1,,195
2013-7-19,95,88,81,76,73,71,77,62,49,30.06,30.01,29.95,10,9,7,16,10,22,0.00,0,,226
2013-7-20,93,86,80,74,72,71,74,63,52,29.98,29.94,29.89,10,10,10,18,14,25,0.00,1,,226
2013-7-21,93,82,73,73,70,64,88,71,54,29.96,29.93,29.88,10,7,0,23,13,50,3.17,4,Rain,268
2013-7-22,91,82,73,77,72,69,88,76,59,29.94,29.88,29.80,10,6,0,20,3,30,1.63,5,Rain,151
2013-7-23,91,85,79,73,72,69,79,68,47,29.80,29.74,29.68,10,10,10,15,9,21,0.00,3,,234
2013-7-24,93,86,78,72,70,68,79,65,45,29.85,29.76,29.69,10,10,9,9,5,,0.02,1,Rain,341
2013-7-25,81,76,71,70,66,64,83,74,61,30.01,29.90,29.83,10,8,0,22,11,38,2.41,6,Rain,20
2013-7-26,86,76,68,67,63,58,84,64,41,30.09,30.06,30.00,10,10,8,10,5,,0.00,1,,348
2013-7-27,88,76,66,66,62,58,84,60,44,30.08,30.02,29.96,10,9,4,10,3,,0.00,1,Rain,150
2013-7-28,90,82,73,72,69,64,82,66,50,30.00,29.95,29.92,10,10,10,13,5,16,0.00,4,,204
2013-7-29,86,78,71,70,65,61,82,65,44,30.16,30.07,29.98,10,10,6,9,5,22,0.04,3,Rain,8
2013-7-30,86,76,68,64,63,60,81,63,47,30.22,30.18,30.15,10,9,5,7,3,,0.00,2,,63
2013-7-31,87,78,71,70,65,62,83,65,46,30.16,30.12,30.05,10,9,6,9,3,,0.02,4,Rain,165